Richton Park, Illinois
Current Conditions -  °F | °C
As of 11:15 PM on Saturday 20 Dec 2014 (Local Time) from KIGQ Reporting Station
Overcast Overcast  
Wind Chill: 26°   Ceiling: 3600
Heat Index: 32°   Visibility: 7mi
Dew Point: 27°   Wind: 6mph
Humidity: 83%   Direction: 180°S
Pressure: 30.26"   Gusts: NA
Location:  41.48°N, 87.72°W
Report Text: KIGQ 210515Z AUTO 18005KT 7SM OVC036 00/M03 A3026 RMK AO2 T00001026
Loading
Personal Weather Stations






























Interactive Weather Map New forecast layout! Learn more

10-Day Weather Forecast

Advertisements
Track Severe Weather on mobile